Etusivu
METAR-TAF:

METAR-TAF

Lentoasemat :

Ely, Minnesota, Yhdysvallat

Leveyspiiri: 47-49N, Pituuspiiri: 091-50W, korkeus merenpinnasta: 443 m

Tämänhetkinen sää

Tämä raportti tehtiin 19 minuuttia sitten, kello 12.19 UTC
Tuuli 4 kn etelästä
Lämpötila -11°C
Kosteus 85%
Ilmanpaine 1010 hPa
Näkyvyys: 16.1 km
Pilvistä 4800 ft:n korkeudessa
heikkoa lumisadetta

METAR: KELO 131219Z AUTO 19004KT 10SM -SN OVC048 M11/M13 A2983 RMK AO2

Aika: 06:38 (12:38 UTC)


TAF: puuttuu

Säähavainnot ja -ennusteet yli 4000 lentoasemalta (METAR- ja TAF-raportit).

Käytössä olevat sääasemat on merkitty karttaan keltaisilla ja punaisilla pisteillä.

Aseta hiiri pisteen päälle nähdäksesi sääaseman nimen.

Klikkaa sitten nähdäksesi säähavainnot ja -ennusteet.

Kartan vaihtaminen: klikkaa mustalla rastilla varustettuja vihreitä pisteitä, niin voit zoomata sisään; viivalla varustettua vihreää pistettä, niin voit zoomata ulos tai vihreitä nuolia, niin pääset viereisille kartoille.


METAR-TAF: